sensor_id;sensor_type;location;lat;lon;timestamp;temperature;humidity
37432;DHT22;23292;51.300;6.252;2023-12-20T00:02:12;6.90;99.90
37432;DHT22;23292;51.300;6.252;2023-12-20T00:04:39;7.00;99.90
37432;DHT22;23292;51.300;6.252;2023-12-20T00:07:05;7.10;99.90
37432;DHT22;23292;51.300;6.252;2023-12-20T00:09:32;7.10;99.90
37432;DHT22;23292;51.300;6.252;2023-12-20T00:11:59;7.10;99.90
37432;DHT22;23292;51.300;6.252;2023-12-20T00:14:26;7.10;99.90
37432;DHT22;23292;51.300;6.252;2023-12-20T00:16:53;7.10;99.90
37432;DHT22;23292;51.300;6.252;2023-12-20T00:19:20;7.20;99.90
37432;DHT22;23292;51.300;6.252;2023-12-20T00:21:47;7.20;99.90
37432;DHT22;23292;51.300;6.252;2023-12-20T00:24:14;7.30;99.90
37432;DHT22;23292;51.300;6.252;2023-12-20T00:26:40;7.40;99.90
37432;DHT22;23292;51.300;6.252;2023-12-20T00:29:07;7.40;99.90
37432;DHT22;23292;51.300;6.252;2023-12-20T00:31:34;7.40;99.90
37432;DHT22;23292;51.300;6.252;2023-12-20T00:34:01;7.40;99.90
37432;DHT22;23292;51.300;6.252;2023-12-20T00:36:27;7.30;99.90
37432;DHT22;23292;51.300;6.252;2023-12-20T00:38:54;7.30;99.90
37432;DHT22;23292;51.300;6.252;2023-12-20T00:41:21;7.40;99.90
37432;DHT22;23292;51.300;6.252;2023-12-20T00:43:48;7.40;99.90
37432;DHT22;23292;51.300;6.252;2023-12-20T00:46:15;7.40;99.90
37432;DHT22;23292;51.300;6.252;2023-12-20T00:48:42;7.30;99.90
37432;DHT22;23292;51.300;6.252;2023-12-20T00:51:12;7.40;99.90
37432;DHT22;23292;51.300;6.252;2023-12-20T00:53:39;7.40;99.90
37432;DHT22;23292;51.300;6.252;2023-12-20T00:56:06;7.40;99.90
37432;DHT22;23292;51.300;6.252;2023-12-20T00:58:33;7.40;99.90
37432;DHT22;23292;51.300;6.252;2023-12-20T01:01:00;7.40;99.90
37432;DHT22;23292;51.300;6.252;2023-12-20T01:03:26;7.40;99.90
37432;DHT22;23292;51.300;6.252;2023-12-20T01:05:53;7.30;99.90
37432;DHT22;23292;51.300;6.252;2023-12-20T01:08:20;7.20;99.90
37432;DHT22;23292;51.300;6.252;2023-12-20T01:10:47;7.10;99.90
37432;DHT22;23292;51.300;6.252;2023-12-20T01:13:13;7.10;99.90
37432;DHT22;23292;51.300;6.252;2023-12-20T01:15:41;7.00;99.90
37432;DHT22;23292;51.300;6.252;2023-12-20T01:18:08;7.00;99.90
37432;DHT22;23292;51.300;6.252;2023-12-20T01:20:35;6.90;99.90
37432;DHT22;23292;51.300;6.252;2023-12-20T01:23:02;6.90;99.90
37432;DHT22;23292;51.300;6.252;2023-12-20T01:25:29;6.80;99.90
37432;DHT22;23292;51.300;6.252;2023-12-20T01:27:56;6.70;99.90
37432;DHT22;23292;51.300;6.252;2023-12-20T01:30:22;6.60;99.90
37432;DHT22;23292;51.300;6.252;2023-12-20T01:32:49;6.50;99.90
37432;DHT22;23292;51.300;6.252;2023-12-20T01:35:16;6.40;99.90
37432;DHT22;23292;51.300;6.252;2023-12-20T01:37:43;6.30;99.90
37432;DHT22;23292;51.300;6.252;2023-12-20T01:40:10;6.40;99.90
37432;DHT22;23292;51.300;6.252;2023-12-20T01:42:37;6.30;99.90
37432;DHT22;23292;51.300;6.252;2023-12-20T01:45:04;6.20;99.90
37432;DHT22;23292;51.300;6.252;2023-12-20T01:47:31;6.10;99.90
37432;DHT22;23292;51.300;6.252;2023-12-20T01:49:58;5.80;99.90
37432;DHT22;23292;51.300;6.252;2023-12-20T01:52:26;5.80;99.90
37432;DHT22;23292;51.300;6.252;2023-12-20T01:54:53;5.80;99.90
37432;DHT22;23292;51.300;6.252;2023-12-20T01:57:23;6.00;99.90
37432;DHT22;23292;51.300;6.252;2023-12-20T01:59:50;6.00;99.90
37432;DHT22;23292;51.300;6.252;2023-12-20T02:02:17;6.00;99.90
37432;DHT22;23292;51.300;6.252;2023-12-20T02:04:44;5.90;99.90
37432;DHT22;23292;51.300;6.252;2023-12-20T02:07:12;5.90;99.90
37432;DHT22;23292;51.300;6.252;2023-12-20T02:09:39;5.70;99.90
37432;DHT22;23292;51.300;6.252;2023-12-20T02:12:06;5.70;99.90
37432;DHT22;23292;51.300;6.252;2023-12-20T02:14:35;5.60;99.90
37432;DHT22;23292;51.300;6.252;2023-12-20T02:17:01;5.50;99.90
37432;DHT22;23292;51.300;6.252;2023-12-20T02:19:28;5.40;99.90
37432;DHT22;23292;51.300;6.252;2023-12-20T02:22:10;5.40;99.90
37432;DHT22;23292;51.300;6.252;2023-12-20T02:24:38;5.50;99.90
37432;DHT22;23292;51.300;6.252;2023-12-20T02:27:06;5.40;99.90
37432;DHT22;23292;51.300;6.252;2023-12-20T02:29:34;5.40;99.90
37432;DHT22;23292;51.300;6.252;2023-12-20T02:32:02;5.40;99.90
37432;DHT22;23292;51.300;6.252;2023-12-20T02:34:29;5.40;99.90
37432;DHT22;23292;51.300;6.252;2023-12-20T02:36:56;5.30;99.90
37432;DHT22;23292;51.300;6.252;2023-12-20T02:39:23;5.30;99.90
37432;DHT22;23292;51.300;6.252;2023-12-20T02:41:49;5.20;99.90
37432;DHT22;23292;51.300;6.252;2023-12-20T02:44:16;5.10;99.90
37432;DHT22;23292;51.300;6.252;2023-12-20T02:46:43;5.10;99.90
37432;DHT22;23292;51.300;6.252;2023-12-20T02:49:10;5.10;99.90
37432;DHT22;23292;51.300;6.252;2023-12-20T02:51:37;5.30;99.90
37432;DHT22;23292;51.300;6.252;2023-12-20T02:54:07;5.40;99.90
37432;DHT22;23292;51.300;6.252;2023-12-20T02:56:34;5.30;99.90
37432;DHT22;23292;51.300;6.252;2023-12-20T02:59:01;5.40;99.90
37432;DHT22;23292;51.300;6.252;2023-12-20T03:01:29;5.50;99.90
37432;DHT22;23292;51.300;6.252;2023-12-20T03:03:56;5.60;99.90
37432;DHT22;23292;51.300;6.252;2023-12-20T03:06:23;5.60;99.90
37432;DHT22;23292;51.300;6.252;2023-12-20T03:08:51;5.50;99.90
37432;DHT22;23292;51.300;6.252;2023-12-20T03:11:18;5.50;99.90
37432;DHT22;23292;51.300;6.252;2023-12-20T03:13:44;5.60;99.90
37432;DHT22;23292;51.300;6.252;2023-12-20T03:16:12;5.60;99.90
37432;DHT22;23292;51.300;6.252;2023-12-20T03:18:39;5.70;99.90
37432;DHT22;23292;51.300;6.252;2023-12-20T03:21:06;5.70;99.90
37432;DHT22;23292;51.300;6.252;2023-12-20T03:23:33;5.70;99.90
37432;DHT22;23292;51.300;6.252;2023-12-20T03:26:00;5.70;99.90
37432;DHT22;23292;51.300;6.252;2023-12-20T03:28:27;5.70;99.90
37432;DHT22;23292;51.300;6.252;2023-12-20T03:30:54;5.70;99.90
37432;DHT22;23292;51.300;6.252;2023-12-20T03:33:21;5.70;99.90
37432;DHT22;23292;51.300;6.252;2023-12-20T03:35:48;5.60;99.90
37432;DHT22;23292;51.300;6.252;2023-12-20T03:38:14;5.60;99.90
37432;DHT22;23292;51.300;6.252;2023-12-20T03:40:41;5.60;99.90
37432;DHT22;23292;51.300;6.252;2023-12-20T03:43:08;5.60;99.90
37432;DHT22;23292;51.300;6.252;2023-12-20T03:45:35;5.60;99.90
37432;DHT22;23292;51.300;6.252;2023-12-20T03:48:02;5.60;99.90
37432;DHT22;23292;51.300;6.252;2023-12-20T03:50:29;5.60;99.90
37432;DHT22;23292;51.300;6.252;2023-12-20T03:52:56;5.60;99.90
37432;DHT22;23292;51.300;6.252;2023-12-20T03:55:23;5.60;99.90
37432;DHT22;23292;51.300;6.252;2023-12-20T03:57:50;5.50;99.90
37432;DHT22;23292;51.300;6.252;2023-12-20T04:00:17;5.50;99.90
37432;DHT22;23292;51.300;6.252;2023-12-20T04:02:44;5.40;99.90
37432;DHT22;23292;51.300;6.252;2023-12-20T04:05:11;5.40;99.90
37432;DHT22;23292;51.300;6.252;2023-12-20T04:07:37;5.40;99.90
37432;DHT22;23292;51.300;6.252;2023-12-20T04:10:05;5.40;99.90
37432;DHT22;23292;51.300;6.252;2023-12-20T04:12:32;5.30;99.90
37432;DHT22;23292;51.300;6.252;2023-12-20T04:14:59;5.40;99.90
37432;DHT22;23292;51.300;6.252;2023-12-20T04:17:26;5.40;99.90
37432;DHT22;23292;51.300;6.252;2023-12-20T04:19:53;5.30;99.90
37432;DHT22;23292;51.300;6.252;2023-12-20T04:22:20;5.30;99.90
37432;DHT22;23292;51.300;6.252;2023-12-20T04:24:47;5.30;99.90
37432;DHT22;23292;51.300;6.252;2023-12-20T04:27:13;5.40;99.90
37432;DHT22;23292;51.300;6.252;2023-12-20T04:29:40;5.40;99.90
37432;DHT22;23292;51.300;6.252;2023-12-20T04:32:07;5.40;99.90
37432;DHT22;23292;51.300;6.252;2023-12-20T04:34:33;5.40;99.90
37432;DHT22;23292;51.300;6.252;2023-12-20T04:37:00;5.40;99.90
37432;DHT22;23292;51.300;6.252;2023-12-20T04:39:28;5.40;99.90
37432;DHT22;23292;51.300;6.252;2023-12-20T04:41:55;5.40;99.90
37432;DHT22;23292;51.300;6.252;2023-12-20T04:44:22;5.50;99.90
37432;DHT22;23292;51.300;6.252;2023-12-20T04:46:49;5.50;99.90
37432;DHT22;23292;51.300;6.252;2023-12-20T04:49:16;5.50;99.90
37432;DHT22;23292;51.300;6.252;2023-12-20T04:51:43;5.60;99.90
37432;DHT22;23292;51.300;6.252;2023-12-20T04:54:10;5.60;99.90
37432;DHT22;23292;51.300;6.252;2023-12-20T04:56:37;5.70;99.90
37432;DHT22;23292;51.300;6.252;2023-12-20T04:59:03;5.80;99.90
37432;DHT22;23292;51.300;6.252;2023-12-20T05:01:30;5.80;99.90
37432;DHT22;23292;51.300;6.252;2023-12-20T05:03:57;5.80;99.90
37432;DHT22;23292;51.300;6.252;2023-12-20T05:06:24;5.80;99.90
37432;DHT22;23292;51.300;6.252;2023-12-20T05:08:51;5.80;99.90
37432;DHT22;23292;51.300;6.252;2023-12-20T05:11:18;5.90;99.90
37432;DHT22;23292;51.300;6.252;2023-12-20T05:13:44;5.90;99.90
37432;DHT22;23292;51.300;6.252;2023-12-20T05:16:16;5.90;99.90
37432;DHT22;23292;51.300;6.252;2023-12-20T05:18:48;5.90;99.90
37432;DHT22;23292;51.300;6.252;2023-12-20T05:21:17;5.90;99.90
37432;DHT22;23292;51.300;6.252;2023-12-20T05:23:43;6.00;99.90
37432;DHT22;23292;51.300;6.252;2023-12-20T05:26:10;6.00;99.90
37432;DHT22;23292;51.300;6.252;2023-12-20T05:28:37;6.00;99.90
37432;DHT22;23292;51.300;6.252;2023-12-20T05:31:03;6.10;99.90
37432;DHT22;23292;51.300;6.252;2023-12-20T05:33:31;6.10;99.90
37432;DHT22;23292;51.300;6.252;2023-12-20T05:35:57;6.00;99.90
37432;DHT22;23292;51.300;6.252;2023-12-20T05:38:24;6.10;99.90
37432;DHT22;23292;51.300;6.252;2023-12-20T05:40:52;6.10;99.90
37432;DHT22;23292;51.300;6.252;2023-12-20T05:43:18;6.20;99.90
37432;DHT22;23292;51.300;6.252;2023-12-20T05:45:46;6.20;99.90
37432;DHT22;23292;51.300;6.252;2023-12-20T05:48:13;6.30;99.90
37432;DHT22;23292;51.300;6.252;2023-12-20T05:50:40;6.20;99.90
37432;DHT22;23292;51.300;6.252;2023-12-20T05:53:07;6.30;99.90
37432;DHT22;23292;51.300;6.252;2023-12-20T05:55:34;6.20;99.90
37432;DHT22;23292;51.300;6.252;2023-12-20T05:58:02;6.20;99.90
37432;DHT22;23292;51.300;6.252;2023-12-20T06:00:29;6.30;99.90
37432;DHT22;23292;51.300;6.252;2023-12-20T06:02:56;6.40;99.90
37432;DHT22;23292;51.300;6.252;2023-12-20T06:05:23;6.40;99.90
37432;DHT22;23292;51.300;6.252;2023-12-20T06:07:50;6.30;99.90
37432;DHT22;23292;51.300;6.252;2023-12-20T06:10:17;6.40;99.90
37432;DHT22;23292;51.300;6.252;2023-12-20T06:12:44;6.40;99.90
37432;DHT22;23292;51.300;6.252;2023-12-20T06:15:13;6.40;99.90
37432;DHT22;23292;51.300;6.252;2023-12-20T06:17:40;6.40;99.90
37432;DHT22;23292;51.300;6.252;2023-12-20T06:20:08;6.40;99.90
37432;DHT22;23292;51.300;6.252;2023-12-20T06:22:35;6.50;99.90
37432;DHT22;23292;51.300;6.252;2023-12-20T06:25:05;6.40;99.90
37432;DHT22;23292;51.300;6.252;2023-12-20T06:27:32;6.50;99.90
37432;DHT22;23292;51.300;6.252;2023-12-20T06:29:59;6.50;99.90
37432;DHT22;23292;51.300;6.252;2023-12-20T06:32:26;6.60;99.90
37432;DHT22;23292;51.300;6.252;2023-12-20T06:34:53;6.60;99.90
37432;DHT22;23292;51.300;6.252;2023-12-20T06:37:19;6.60;99.90
37432;DHT22;23292;51.300;6.252;2023-12-20T06:39:46;6.60;99.90
37432;DHT22;23292;51.300;6.252;2023-12-20T06:42:13;6.60;99.90
37432;DHT22;23292;51.300;6.252;2023-12-20T06:44:40;6.60;99.90
37432;DHT22;23292;51.300;6.252;2023-12-20T06:47:08;6.60;99.90
37432;DHT22;23292;51.300;6.252;2023-12-20T06:49:34;6.60;99.90
37432;DHT22;23292;51.300;6.252;2023-12-20T06:52:01;6.60;99.90
37432;DHT22;23292;51.300;6.252;2023-12-20T06:54:28;6.60;99.90
37432;DHT22;23292;51.300;6.252;2023-12-20T06:56:55;6.60;99.90
37432;DHT22;23292;51.300;6.252;2023-12-20T06:59:22;6.60;99.90
37432;DHT22;23292;51.300;6.252;2023-12-20T07:01:49;6.60;99.90
37432;DHT22;23292;51.300;6.252;2023-12-20T07:04:16;6.70;99.90
37432;DHT22;23292;51.300;6.252;2023-12-20T07:06:48;6.60;99.90
37432;DHT22;23292;51.300;6.252;2023-12-20T07:09:15;6.70;99.90
37432;DHT22;23292;51.300;6.252;2023-12-20T07:11:42;6.70;99.90
37432;DHT22;23292;51.300;6.252;2023-12-20T07:14:08;6.70;99.90
37432;DHT22;23292;51.300;6.252;2023-12-20T07:16:35;6.70;99.90
37432;DHT22;23292;51.300;6.252;2023-12-20T07:19:02;6.70;99.90
37432;DHT22;23292;51.300;6.252;2023-12-20T07:21:29;6.70;99.90
37432;DHT22;23292;51.300;6.252;2023-12-20T07:23:56;6.70;99.90
37432;DHT22;23292;51.300;6.252;2023-12-20T07:26:23;6.70;99.90
37432;DHT22;23292;51.300;6.252;2023-12-20T07:28:50;6.60;99.90
37432;DHT22;23292;51.300;6.252;2023-12-20T07:31:17;6.70;99.90
37432;DHT22;23292;51.300;6.252;2023-12-20T07:33:44;6.60;99.90
37432;DHT22;23292;51.300;6.252;2023-12-20T07:36:12;6.70;99.90
37432;DHT22;23292;51.300;6.252;2023-12-20T07:38:39;6.60;99.90
37432;DHT22;23292;51.300;6.252;2023-12-20T07:41:10;6.70;99.90
37432;DHT22;23292;51.300;6.252;2023-12-20T07:43:37;6.70;99.90
37432;DHT22;23292;51.300;6.252;2023-12-20T07:46:07;6.70;99.90
37432;DHT22;23292;51.300;6.252;2023-12-20T07:48:35;6.70;99.90
37432;DHT22;23292;51.300;6.252;2023-12-20T07:51:03;6.60;99.90
37432;DHT22;23292;51.300;6.252;2023-12-20T07:53:30;6.60;99.90
37432;DHT22;23292;51.300;6.252;2023-12-20T07:55:57;6.50;99.90
37432;DHT22;23292;51.300;6.252;2023-12-20T07:58:24;6.50;99.90
37432;DHT22;23292;51.300;6.252;2023-12-20T08:01:06;6.40;99.90
37432;DHT22;23292;51.300;6.252;2023-12-20T08:03:33;6.50;99.90
37432;DHT22;23292;51.300;6.252;2023-12-20T08:06:01;6.50;99.90
37432;DHT22;23292;51.300;6.252;2023-12-20T08:08:29;6.50;99.90
37432;DHT22;23292;51.300;6.252;2023-12-20T08:10:55;6.50;99.90
37432;DHT22;23292;51.300;6.252;2023-12-20T08:13:24;6.50;99.90
37432;DHT22;23292;51.300;6.252;2023-12-20T08:15:53;6.50;99.90
37432;DHT22;23292;51.300;6.252;2023-12-20T08:18:20;6.50;99.90
37432;DHT22;23292;51.300;6.252;2023-12-20T08:20:46;6.50;99.90
37432;DHT22;23292;51.300;6.252;2023-12-20T08:23:15;6.50;99.90
37432;DHT22;23292;51.300;6.252;2023-12-20T08:25:42;6.50;99.90
37432;DHT22;23292;51.300;6.252;2023-12-20T08:28:09;6.40;99.90
37432;DHT22;23292;51.300;6.252;2023-12-20T08:30:36;6.50;99.90
37432;DHT22;23292;51.300;6.252;2023-12-20T08:33:03;6.40;99.90
37432;DHT22;23292;51.300;6.252;2023-12-20T08:35:30;6.60;99.90
37432;DHT22;23292;51.300;6.252;2023-12-20T08:37:56;6.60;99.90
37432;DHT22;23292;51.300;6.252;2023-12-20T08:40:23;6.60;99.90
37432;DHT22;23292;51.300;6.252;2023-12-20T08:42:50;6.60;99.90
37432;DHT22;23292;51.300;6.252;2023-12-20T08:45:17;6.50;99.90
37432;DHT22;23292;51.300;6.252;2023-12-20T08:47:43;6.50;99.90
37432;DHT22;23292;51.300;6.252;2023-12-20T08:50:12;6.60;99.90
37432;DHT22;23292;51.300;6.252;2023-12-20T08:52:39;6.70;99.90
37432;DHT22;23292;51.300;6.252;2023-12-20T08:55:06;6.70;99.90
37432;DHT22;23292;51.300;6.252;2023-12-20T08:57:33;6.70;99.90
37432;DHT22;23292;51.300;6.252;2023-12-20T09:00:00;6.70;99.90
37432;DHT22;23292;51.300;6.252;2023-12-20T09:02:27;6.70;99.90
37432;DHT22;23292;51.300;6.252;2023-12-20T09:04:55;6.70;99.90
37432;DHT22;23292;51.300;6.252;2023-12-20T09:07:27;6.70;99.90
37432;DHT22;23292;51.300;6.252;2023-12-20T09:09:56;6.70;99.90
37432;DHT22;23292;51.300;6.252;2023-12-20T09:12:23;6.80;99.90
37432;DHT22;23292;51.300;6.252;2023-12-20T09:14:50;6.80;99.90
37432;DHT22;23292;51.300;6.252;2023-12-20T09:17:18;6.80;99.90
37432;DHT22;23292;51.300;6.252;2023-12-20T09:19:45;6.80;99.90
37432;DHT22;23292;51.300;6.252;2023-12-20T09:22:12;6.90;99.90
37432;DHT22;23292;51.300;6.252;2023-12-20T09:24:39;6.90;99.90
37432;DHT22;23292;51.300;6.252;2023-12-20T09:27:06;6.90;99.90
37432;DHT22;23292;51.300;6.252;2023-12-20T09:29:33;7.00;99.90
37432;DHT22;23292;51.300;6.252;2023-12-20T09:32:00;7.00;99.90
37432;DHT22;23292;51.300;6.252;2023-12-20T09:34:27;7.10;99.90
37432;DHT22;23292;51.300;6.252;2023-12-20T09:36:54;7.10;99.90
37432;DHT22;23292;51.300;6.252;2023-12-20T09:39:21;7.00;99.90
37432;DHT22;23292;51.300;6.252;2023-12-20T09:42:02;7.00;99.90
37432;DHT22;23292;51.300;6.252;2023-12-20T09:44:29;7.10;99.90
37432;DHT22;23292;51.300;6.252;2023-12-20T09:46:57;7.10;99.90
37432;DHT22;23292;51.300;6.252;2023-12-20T09:49:25;7.10;99.90
37432;DHT22;23292;51.300;6.252;2023-12-20T09:51:54;7.20;99.90
37432;DHT22;23292;51.300;6.252;2023-12-20T09:54:22;7.10;99.90
37432;DHT22;23292;51.300;6.252;2023-12-20T09:56:49;7.00;99.90
37432;DHT22;23292;51.300;6.252;2023-12-20T09:59:16;7.00;99.90
37432;DHT22;23292;51.300;6.252;2023-12-20T10:01:43;7.00;99.90
37432;DHT22;23292;51.300;6.252;2023-12-20T10:04:12;7.10;99.90
37432;DHT22;23292;51.300;6.252;2023-12-20T10:06:55;7.10;99.90
37432;DHT22;23292;51.300;6.252;2023-12-20T10:09:24;7.10;99.90
37432;DHT22;23292;51.300;6.252;2023-12-20T10:11:54;7.20;99.90
37432;DHT22;23292;51.300;6.252;2023-12-20T10:14:21;7.30;99.90
37432;DHT22;23292;51.300;6.252;2023-12-20T10:16:50;7.30;99.90
37432;DHT22;23292;51.300;6.252;2023-12-20T10:19:17;7.40;99.90
37432;DHT22;23292;51.300;6.252;2023-12-20T10:21:45;7.40;99.90
37432;DHT22;23292;51.300;6.252;2023-12-20T10:24:17;7.30;99.90
37432;DHT22;23292;51.300;6.252;2023-12-20T10:26:44;7.40;99.90
37432;DHT22;23292;51.300;6.252;2023-12-20T10:29:10;7.40;99.90
37432;DHT22;23292;51.300;6.252;2023-12-20T10:31:37;7.40;99.90
37432;DHT22;23292;51.300;6.252;2023-12-20T10:34:09;7.40;99.90
37432;DHT22;23292;51.300;6.252;2023-12-20T10:36:36;7.40;99.90
37432;DHT22;23292;51.300;6.252;2023-12-20T10:39:05;7.50;99.90
37432;DHT22;23292;51.300;6.252;2023-12-20T10:41:34;7.50;99.90
37432;DHT22;23292;51.300;6.252;2023-12-20T10:44:08;7.50;99.90
37432;DHT22;23292;51.300;6.252;2023-12-20T10:46:37;7.50;99.90
37432;DHT22;23292;51.300;6.252;2023-12-20T10:49:07;7.50;99.90
37432;DHT22;23292;51.300;6.252;2023-12-20T10:51:35;7.50;99.90
37432;DHT22;23292;51.300;6.252;2023-12-20T10:54:03;7.50;99.90
37432;DHT22;23292;51.300;6.252;2023-12-20T10:56:32;7.50;99.90
37432;DHT22;23292;51.300;6.252;2023-12-20T10:59:02;7.50;99.90
37432;DHT22;23292;51.300;6.252;2023-12-20T11:01:32;7.40;99.90
37432;DHT22;23292;51.300;6.252;2023-12-20T11:04:00;7.40;99.90
37432;DHT22;23292;51.300;6.252;2023-12-20T11:06:36;7.40;99.90
37432;DHT22;23292;51.300;6.252;2023-12-20T11:09:23;7.40;99.90
37432;DHT22;23292;51.300;6.252;2023-12-20T11:14:27;7.50;99.90
37432;DHT22;23292;51.300;6.252;2023-12-20T11:17:10;7.60;99.90
37432;DHT22;23292;51.300;6.252;2023-12-20T11:22:26;7.50;99.90
37432;DHT22;23292;51.300;6.252;2023-12-20T11:25:00;7.60;99.90
37432;DHT22;23292;51.300;6.252;2023-12-20T11:27:30;7.60;99.90
37432;DHT22;23292;51.300;6.252;2023-12-20T11:29:58;7.70;99.90
37432;DHT22;23292;51.300;6.252;2023-12-20T11:34:54;7.70;99.90
37432;DHT22;23292;51.300;6.252;2023-12-20T11:37:21;7.80;99.90
37432;DHT22;23292;51.300;6.252;2023-12-20T11:39:55;7.80;99.90
37432;DHT22;23292;51.300;6.252;2023-12-20T11:42:23;7.70;99.90
37432;DHT22;23292;51.300;6.252;2023-12-20T11:44:50;7.70;99.90
37432;DHT22;23292;51.300;6.252;2023-12-20T11:47:18;7.70;99.90
37432;DHT22;23292;51.300;6.252;2023-12-20T11:49:48;7.70;99.90
37432;DHT22;23292;51.300;6.252;2023-12-20T11:52:16;7.70;99.90
37432;DHT22;23292;51.300;6.252;2023-12-20T11:54:43;7.60;99.90
37432;DHT22;23292;51.300;6.252;2023-12-20T11:57:09;7.60;99.90
37432;DHT22;23292;51.300;6.252;2023-12-20T11:59:36;7.60;99.90
37432;DHT22;23292;51.300;6.252;2023-12-20T12:02:03;7.60;99.90
37432;DHT22;23292;51.300;6.252;2023-12-20T12:04:30;7.60;99.90
37432;DHT22;23292;51.300;6.252;2023-12-20T12:06:58;7.70;99.90
37432;DHT22;23292;51.300;6.252;2023-12-20T12:09:24;7.70;99.90
37432;DHT22;23292;51.300;6.252;2023-12-20T12:11:51;7.70;99.90
37432;DHT22;23292;51.300;6.252;2023-12-20T12:14:19;7.80;99.90
37432;DHT22;23292;51.300;6.252;2023-12-20T12:16:47;7.80;99.90
37432;DHT22;23292;51.300;6.252;2023-12-20T12:19:24;7.80;99.90
37432;DHT22;23292;51.300;6.252;2023-12-20T12:22:08;7.90;99.90
37432;DHT22;23292;51.300;6.252;2023-12-20T12:24:41;7.80;99.90
37432;DHT22;23292;51.300;6.252;2023-12-20T12:27:09;7.80;99.90
37432;DHT22;23292;51.300;6.252;2023-12-20T12:29:36;7.80;99.90
37432;DHT22;23292;51.300;6.252;2023-12-20T12:32:07;7.70;99.90
37432;DHT22;23292;51.300;6.252;2023-12-20T12:34:35;7.60;99.90
37432;DHT22;23292;51.300;6.252;2023-12-20T12:37:04;7.60;99.90
37432;DHT22;23292;51.300;6.252;2023-12-20T12:39:31;7.60;99.90
37432;DHT22;23292;51.300;6.252;2023-12-20T12:41:58;7.60;99.90
37432;DHT22;23292;51.300;6.252;2023-12-20T12:44:24;7.60;99.90
37432;DHT22;23292;51.300;6.252;2023-12-20T12:46:52;7.60;99.90
37432;DHT22;23292;51.300;6.252;2023-12-20T12:49:21;7.80;99.90
37432;DHT22;23292;51.300;6.252;2023-12-20T12:51:51;7.60;99.90
37432;DHT22;23292;51.300;6.252;2023-12-20T12:54:18;7.70;99.90
37432;DHT22;23292;51.300;6.252;2023-12-20T12:56:45;7.70;99.90
37432;DHT22;23292;51.300;6.252;2023-12-20T12:59:14;7.60;99.90
37432;DHT22;23292;51.300;6.252;2023-12-20T13:01:41;7.60;99.90
37432;DHT22;23292;51.300;6.252;2023-12-20T13:04:09;7.70;99.90
37432;DHT22;23292;51.300;6.252;2023-12-20T13:06:38;7.60;99.90
37432;DHT22;23292;51.300;6.252;2023-12-20T13:09:05;7.60;99.90
37432;DHT22;23292;51.300;6.252;2023-12-20T13:11:33;7.60;99.90
37432;DHT22;23292;51.300;6.252;2023-12-20T13:14:01;7.50;99.90
37432;DHT22;23292;51.300;6.252;2023-12-20T13:16:30;7.50;99.90
37432;DHT22;23292;51.300;6.252;2023-12-20T13:18:57;7.50;99.90
37432;DHT22;23292;51.300;6.252;2023-12-20T13:21:27;7.50;99.90
37432;DHT22;23292;51.300;6.252;2023-12-20T13:23:54;7.50;99.90
37432;DHT22;23292;51.300;6.252;2023-12-20T13:26:21;7.50;99.90
37432;DHT22;23292;51.300;6.252;2023-12-20T13:28:48;7.50;99.90
37432;DHT22;23292;51.300;6.252;2023-12-20T13:31:15;7.50;99.90
37432;DHT22;23292;51.300;6.252;2023-12-20T13:33:43;7.60;99.90
37432;DHT22;23292;51.300;6.252;2023-12-20T13:36:10;7.60;99.90
37432;DHT22;23292;51.300;6.252;2023-12-20T13:38:37;7.60;99.90
37432;DHT22;23292;51.300;6.252;2023-12-20T13:41:04;7.60;99.90
37432;DHT22;23292;51.300;6.252;2023-12-20T13:43:35;7.60;99.90
37432;DHT22;23292;51.300;6.252;2023-12-20T13:46:03;7.60;99.90
37432;DHT22;23292;51.300;6.252;2023-12-20T13:48:30;7.70;99.90
37432;DHT22;23292;51.300;6.252;2023-12-20T13:50:57;7.60;99.90
37432;DHT22;23292;51.300;6.252;2023-12-20T13:53:24;7.70;99.90
37432;DHT22;23292;51.300;6.252;2023-12-20T13:55:53;7.60;99.90
37432;DHT22;23292;51.300;6.252;2023-12-20T13:58:20;7.60;99.90
37432;DHT22;23292;51.300;6.252;2023-12-20T14:00:48;7.70;99.90
37432;DHT22;23292;51.300;6.252;2023-12-20T14:03:15;7.70;99.90
37432;DHT22;23292;51.300;6.252;2023-12-20T14:05:44;7.80;99.90
37432;DHT22;23292;51.300;6.252;2023-12-20T14:08:11;7.70;99.90
37432;DHT22;23292;51.300;6.252;2023-12-20T14:10:38;7.70;99.90
37432;DHT22;23292;51.300;6.252;2023-12-20T14:13:05;7.80;99.90
37432;DHT22;23292;51.300;6.252;2023-12-20T14:15:32;7.80;99.90
37432;DHT22;23292;51.300;6.252;2023-12-20T14:18:05;7.80;99.90
37432;DHT22;23292;51.300;6.252;2023-12-20T14:20:33;7.80;99.90
37432;DHT22;23292;51.300;6.252;2023-12-20T14:23:04;7.90;99.90
37432;DHT22;23292;51.300;6.252;2023-12-20T14:25:31;7.80;99.90
37432;DHT22;23292;51.300;6.252;2023-12-20T14:28:11;7.90;99.90
37432;DHT22;23292;51.300;6.252;2023-12-20T14:30:41;7.90;99.90
37432;DHT22;23292;51.300;6.252;2023-12-20T14:33:09;7.90;99.90
37432;DHT22;23292;51.300;6.252;2023-12-20T14:35:36;7.90;99.90
37432;DHT22;23292;51.300;6.252;2023-12-20T14:38:03;7.90;99.90
37432;DHT22;23292;51.300;6.252;2023-12-20T14:40:30;7.80;99.90
37432;DHT22;23292;51.300;6.252;2023-12-20T14:42:57;7.90;99.90
37432;DHT22;23292;51.300;6.252;2023-12-20T14:45:24;7.80;99.90
37432;DHT22;23292;51.300;6.252;2023-12-20T14:47:51;7.80;99.90
37432;DHT22;23292;51.300;6.252;2023-12-20T14:50:18;7.90;99.90
37432;DHT22;23292;51.300;6.252;2023-12-20T14:52:46;7.90;99.90
37432;DHT22;23292;51.300;6.252;2023-12-20T14:55:13;7.90;99.90
37432;DHT22;23292;51.300;6.252;2023-12-20T14:57:40;7.90;99.90
37432;DHT22;23292;51.300;6.252;2023-12-20T15:00:09;7.80;99.90
37432;DHT22;23292;51.300;6.252;2023-12-20T15:02:35;7.80;99.90
37432;DHT22;23292;51.300;6.252;2023-12-20T15:05:02;7.80;99.90
37432;DHT22;23292;51.300;6.252;2023-12-20T15:07:30;7.80;99.90
37432;DHT22;23292;51.300;6.252;2023-12-20T15:09:57;7.90;99.90
37432;DHT22;23292;51.300;6.252;2023-12-20T15:12:24;7.90;99.90
37432;DHT22;23292;51.300;6.252;2023-12-20T15:14:51;7.90;99.90
37432;DHT22;23292;51.300;6.252;2023-12-20T15:17:18;7.90;99.90
37432;DHT22;23292;51.300;6.252;2023-12-20T15:19:44;7.90;99.90
37432;DHT22;23292;51.300;6.252;2023-12-20T15:22:11;7.80;99.90
37432;DHT22;23292;51.300;6.252;2023-12-20T15:24:38;7.80;99.90
37432;DHT22;23292;51.300;6.252;2023-12-20T15:27:08;7.80;99.90
37432;DHT22;23292;51.300;6.252;2023-12-20T15:29:35;7.80;99.90
37432;DHT22;23292;51.300;6.252;2023-12-20T15:32:02;7.80;99.90
37432;DHT22;23292;51.300;6.252;2023-12-20T15:34:30;7.90;99.90
37432;DHT22;23292;51.300;6.252;2023-12-20T15:36:58;7.80;99.90
37432;DHT22;23292;51.300;6.252;2023-12-20T15:39:26;7.80;99.90
37432;DHT22;23292;51.300;6.252;2023-12-20T15:41:53;7.80;99.90
37432;DHT22;23292;51.300;6.252;2023-12-20T15:44:20;7.70;99.90
37432;DHT22;23292;51.300;6.252;2023-12-20T15:46:47;7.70;99.90
37432;DHT22;23292;51.300;6.252;2023-12-20T15:49:13;7.80;99.90
37432;DHT22;23292;51.300;6.252;2023-12-20T15:51:44;7.80;99.90
37432;DHT22;23292;51.300;6.252;2023-12-20T15:54:11;7.80;99.90
37432;DHT22;23292;51.300;6.252;2023-12-20T15:56:38;7.80;99.90